Stamford, VT (05352)

4:25 PM EDT on August 29, 2016 (GMT -0400)
Route 8 - 0.6 mile south of Vermont border | | Change Station

Elev 1090 ft 42.73 °N, 73.07 °W | Updated 1 minute ago

Scattered Clouds
Scattered Clouds
78.2 °F
Feels Like 79 °F
N
3.0
Wind Variable Wind from ESE
Gusts 7.0 mph

Today
High -- | Low -- °F
--% Chance of Precip.
Yesterday
High -- | Low -- °F
Precip. -- in
Pressure 30.11 in
Visibility 10.0 miles
Clouds Scattered Clouds 5500 ft
Heat Index 79 °F
Dew Point 54 °F
Humidity 44%
Rainfall Not available.
Snow Depth Not available.
6:14 AM 7:31 PM
Waning Crescent, 7% visible
METAR KAQW 291952Z AUTO VRB06KT 10SM SCT055 26/13 A3012 RMK AO2 SLP196 T02610133
Pressure 30.11 in
Visibility 10.0 miles
Clouds Scattered Clouds 5500 ft
Heat Index 79 °F
Dew Point 54 °F
Humidity 44%
Rainfall Not available.
Snow Depth Not available.
6:14 AM 7:31 PM
Waning Crescent, 7% visible
METAR KAQW 291952Z AUTO VRB06KT 10SM SCT055 26/13 A3012 RMK AO2 SLP196 T02610133

10-Day Weather Forecast

Almanac

Astronomy

Aug. 29, 2016 Rise Set
Actual Time
Civil Twilight
Nautical Twilight
Astronomical Twilight
Moon
Length of Visible Light
Length of Day
Tomorrow will be .
, % of the Moon is Illuminated

Today's Extremes

State Highs State Lows

Community

WunderPhotos

Upload Photos

1,935,659 photos uploaded!

WunderBlog® & News

Nearby

Air Quality

  Air Quality AQ Index Pollutant
Not available.

Snow Depth

Station Depth Elevation

Earthquake Activity

City Distance Mag. Time & Date
Minimum magnitude displayed is 2.5.

Coastal Water Temperatures

Place Temperature

Stations

Nearby Weather Stations

Station Location Temp. Windchill Dew Point Humidity Wind Precip. Elev Updated Type
                   

Watches & Warnings

There are currently no watches in effect.